Time;durP1;ratioP1;P1;durP2;ratioP2;P2;SDS_P1;SDS_P2;PMS_P1;PMS_P2;Temp;Humidity;BMP_temperature;BMP_pressure;BME280_temperature;BME280_humidity;BME280_pressure;Samples;Min_cycle;Max_cycle;Signal;HPM_P1;HPM_P2
2023/05/24 00:05:17;;;;;;;18.13;9.33;;;7.20;99.90;;;;;;2605568;54;21112;-71
2023/05/24 00:11:06;;;;;;;10.27;9.23;;;7.40;99.90;;;;;;2606261;54;20394;-71
2023/05/24 00:16:53;;;;;;;11.77;8.57;;;7.10;99.90;;;;;;2605307;54;20518;-71
2023/05/24 00:22:42;;;;;;;10.27;8.63;;;7.10;99.90;;;;;;2607498;54;20135;-71
2023/05/24 00:28:30;;;;;;;13.33;8.90;;;6.80;99.90;;;;;;2608644;54;21040;-72
2023/05/24 00:34:18;;;;;;;8.70;7.77;;;6.70;99.90;;;;;;2611090;54;20166;-73
2023/05/24 00:40:06;;;;;;;16.23;7.77;;;6.50;99.90;;;;;;2606768;54;20158;-71
2023/05/24 00:52:26;;;;;;;10.43;8.50;;;6.50;99.90;;;;;;2607729;39;20864;-72
2023/05/24 01:01:36;;;;;;;12.77;9.10;;;6.30;99.90;;;;;;2608688;54;20530;-72
2023/05/24 01:13:46;;;;;;;17.80;9.00;;;6.00;99.90;;;;;;2606646;54;20390;-72
2023/05/24 01:19:43;;;;;;;11.47;8.33;;;6.00;99.90;;;;;;2606951;54;20399;-72
2023/05/24 01:32:11;;;;;;;15.07;8.80;;;5.80;99.90;;;;;;2604802;54;20397;-72
2023/05/24 01:37:59;;;;;;;8.13;7.30;;;5.90;99.90;;;;;;2605845;39;20810;-71
2023/05/24 01:50:30;;;;;;;13.73;8.80;;;6.10;99.90;;;;;;2609346;54;20399;-72
2023/05/24 01:56:20;;;;;;;10.17;7.53;;;6.00;99.90;;;;;;2605675;54;20992;-72
2023/05/24 02:02:09;;;;;;;11.90;7.93;;;6.00;99.90;;;;;;2604868;54;20406;-72
2023/05/24 02:07:57;;;;;;;15.00;7.93;;;5.90;99.90;;;;;;2604718;54;20403;-72
2023/05/24 02:13:45;;;;;;;10.00;7.57;;;5.60;99.90;;;;;;2605596;39;20545;-72
2023/05/24 02:19:35;;;;;;;21.13;8.30;;;5.60;99.90;;;;;;2605061;54;20159;-73
2023/05/24 02:25:23;;;;;;;13.90;7.30;;;5.60;99.90;;;;;;2605699;54;20430;-73
2023/05/24 02:31:11;;;;;;;17.43;7.83;;;5.20;99.90;;;;;;2606050;54;20138;-72
2023/05/24 02:36:58;;;;;;;15.80;7.77;;;5.20;99.90;;;;;;2603471;54;20158;-72
2023/05/24 02:42:46;;;;;;;12.87;7.67;;;5.30;99.90;;;;;;2607833;54;20154;-73
2023/05/24 02:48:35;;;;;;;19.00;7.80;;;5.60;99.90;;;;;;2605104;54;20158;-73
2023/05/24 02:54:23;;;;;;;9.47;8.00;;;5.50;99.90;;;;;;2604209;54;20984;-71
2023/05/24 02:57:05;;;;;;;12.90;7.90;;;5.40;99.90;;;;;;2604597;47;20407;-71
2023/05/24 02:59:32;;;;;;;14.70;9.40;;;5.20;99.90;;;;;;2604892;54;20159;-71
2023/05/24 03:05:20;;;;;;;21.90;8.40;;;5.00;99.90;;;;;;2605597;54;20837;-71
2023/05/24 03:11:08;;;;;;;13.53;8.40;;;5.00;99.90;;;;;;2606581;54;20123;-71
2023/05/24 03:16:55;;;;;;;12.70;7.67;;;5.10;99.90;;;;;;2604860;54;20127;-71
2023/05/24 03:22:43;;;;;;;12.80;8.03;;;5.00;99.90;;;;;;2610457;39;20530;-71
2023/05/24 03:28:32;;;;;;;14.23;7.67;;;5.30;99.90;;;;;;2609981;54;20134;-71
2023/05/24 03:34:20;;;;;;;8.37;7.50;;;5.30;99.90;;;;;;2609434;54;20366;-73
2023/05/24 03:40:08;;;;;;;15.90;7.80;;;5.40;99.90;;;;;;2611324;54;20126;-71
2023/05/24 03:45:55;;;;;;;18.43;7.93;;;5.30;99.90;;;;;;2615013;54;20422;-71
2023/05/24 03:51:43;;;;;;;19.03;8.20;;;5.30;99.90;;;;;;2613514;54;20182;-72
2023/05/24 04:01:37;;;;;;;20.83;8.20;;;5.40;99.90;;;;;;2611213;54;20441;-72
2023/05/24 04:07:25;;;;;;;22.30;8.60;;;5.60;99.90;;;;;;2611858;54;20365;-71
2023/05/24 04:13:12;;;;;;;14.47;8.53;;;5.70;99.90;;;;;;2610671;54;20676;-72
2023/05/24 04:19:02;;;;;;;19.03;9.23;;;5.80;99.90;;;;;;2608860;54;20130;-72
2023/05/24 04:24:50;;;;;;;15.87;9.87;;;5.90;99.90;;;;;;2610655;54;20431;-72
2023/05/24 04:30:37;;;;;;;15.47;9.10;;;6.10;99.90;;;;;;2610119;54;20150;-71
2023/05/24 04:36:25;;;;;;;17.63;10.23;;;6.30;99.90;;;;;;2610282;54;20684;-71
2023/05/24 04:42:14;;;;;;;23.53;10.93;;;6.70;99.90;;;;;;2609799;54;20215;-72
2023/05/24 04:48:01;;;;;;;23.43;10.00;;;7.30;99.90;;;;;;2610163;54;20395;-72
2023/05/24 04:53:49;;;;;;;23.63;10.43;;;7.80;99.90;;;;;;2610660;54;21616;-71
2023/05/24 04:59:50;;;;;;;28.40;11.23;;;7.90;99.90;;;;;;2609550;54;20151;-71
2023/05/24 05:05:38;;;;;;;21.30;11.10;;;8.30;99.90;;;;;;2609316;54;20123;-71
2023/05/24 05:11:26;;;;;;;15.93;10.90;;;8.80;99.90;;;;;;2609574;54;20146;-71
2023/05/24 05:17:13;;;;;;;22.17;10.87;;;9.20;99.90;;;;;;2608352;54;20387;-71
2023/05/24 05:23:00;;;;;;;16.33;11.43;;;9.50;99.90;;;;;;2608148;39;20478;-71
2023/05/24 05:28:48;;;;;;;13.80;10.87;;;9.70;99.90;;;;;;2605966;54;20711;-71
2023/05/24 05:34:35;;;;;;;20.17;13.93;;;9.90;99.90;;;;;;2609400;39;20609;-72
2023/05/24 05:40:22;;;;;;;19.97;12.17;;;10.40;99.90;;;;;;2611943;54;20150;-71
2023/05/24 05:46:12;;;;;;;14.83;12.80;;;11.00;99.90;;;;;;2612932;54;20158;-72
2023/05/24 05:51:59;;;;;;;15.03;13.50;;;11.50;99.90;;;;;;2614772;54;20339;-74
2023/05/24 06:08:04;;;;;;;14.77;13.10;;;10.40;99.90;;;;;;2608113;39;20974;-71
2023/05/24 06:13:51;;;;;;;22.47;14.40;;;10.80;99.90;;;;;;2606715;54;23558;-70
2023/05/24 06:19:38;;;;;;;23.77;12.80;;;10.90;99.90;;;;;;2608773;54;20391;-75
2023/05/24 06:25:29;;;;;;;23.93;15.00;;;11.60;99.90;;;;;;2608124;54;20138;-70
2023/05/24 06:31:17;;;;;;;21.00;14.50;;;12.00;99.90;;;;;;2609144;39;20849;-71
2023/05/24 06:37:04;;;;;;;19.93;14.47;;;13.00;99.90;;;;;;2607447;54;20364;-72
2023/05/24 06:42:51;;;;;;;20.57;15.57;;;11.80;99.90;;;;;;2611506;54;20153;-71
2023/05/24 06:48:39;;;;;;;21.43;14.07;;;12.40;99.90;;;;;;2611618;54;20142;-71
2023/05/24 06:54:27;;;;;;;30.87;14.53;;;12.40;99.90;;;;;;2613279;39;20531;-71
2023/05/24 06:57:08;;;;;;;16.13;14.60;;;13.00;99.90;;;;;;2611553;54;20399;-72
2023/05/24 06:59:33;;;;;;;23.03;15.77;;;13.30;99.90;;;;;;2612947;47;20178;-71
2023/05/24 07:05:22;;;;;;;19.73;15.47;;;12.60;99.90;;;;;;2611284;54;20174;-71
2023/05/24 07:11:10;;;;;;;17.13;14.90;;;12.80;99.90;;;;;;2613239;54;20391;-72
2023/05/24 07:16:58;;;;;;;23.20;14.43;;;12.90;99.90;;;;;;2612888;39;20544;-71
2023/05/24 07:22:46;;;;;;;16.20;13.63;;;13.20;99.90;;;;;;2614131;39;21161;-71
2023/05/24 07:28:36;;;;;;;22.97;13.27;;;14.00;99.90;;;;;;2611110;54;20178;-71
2023/05/24 07:34:26;;;;;;;17.90;16.00;;;14.90;99.90;;;;;;2614507;54;20403;-71
2023/05/24 07:40:14;;;;;;;21.97;15.90;;;13.90;99.90;;;;;;2614682;54;20946;-71
2023/05/24 07:46:02;;;;;;;16.60;14.97;;;14.20;99.90;;;;;;2611294;54;20122;-71
2023/05/24 07:51:49;;;;;;;16.53;14.83;;;14.00;99.90;;;;;;2614181;54;20154;-71
2023/05/24 08:01:36;;;;;;;16.37;14.57;;;15.50;98.00;;;;;;2614043;54;20403;-71
2023/05/24 08:07:24;;;;;;;16.90;15.50;;;15.20;82.70;;;;;;2613504;54;20415;-71
2023/05/24 08:13:12;;;;;;;16.20;14.73;;;14.90;60.60;;;;;;2613767;54;20122;-71
2023/05/24 08:19:00;;;;;;;20.43;16.03;;;14.20;72.30;;;;;;2612200;54;20193;-72
2023/05/24 08:24:47;;;;;;;16.87;15.10;;;14.20;91.20;;;;;;2613057;54;20158;-71
2023/05/24 08:30:36;;;;;;;16.40;14.73;;;13.90;79.70;;;;;;2612304;46;20142;-70
2023/05/24 08:36:23;;;;;;;17.33;15.33;;;13.00;94.60;;;;;;2612685;39;20896;-71
2023/05/24 08:42:11;;;;;;;15.93;14.60;;;13.10;99.90;;;;;;2612393;54;20649;-71
2023/05/24 08:48:00;;;;;;;18.80;15.43;;;12.80;99.90;;;;;;2613811;54;20394;-70
2023/05/24 08:53:49;;;;;;;16.50;14.70;;;13.30;99.90;;;;;;2610308;54;20379;-70
2023/05/24 08:59:54;;;;;;;18.90;17.27;;;13.60;96.30;;;;;;2610861;54;21407;-70
2023/05/24 09:03:15;;;;;;;16.63;14.90;;;14.00;93.30;;;;;;2610812;54;20457;-71
2023/05/24 09:09:03;;;;;;;20.23;15.00;;;14.30;72.90;;;;;;2610757;54;20419;-71
2023/05/24 09:14:52;;;;;;;16.33;14.03;;;14.60;68.90;;;;;;2612555;54;20395;-72
2023/05/24 09:20:38;;;;;;;16.17;14.87;;;14.90;63.70;;;;;;2609659;54;20460;-71
2023/05/24 09:26:29;;;;;;;16.27;14.73;;;15.20;51.70;;;;;;2610425;54;20263;-70
2023/05/24 09:32:18;;;;;;;16.47;14.77;;;15.50;47.30;;;;;;2611076;39;21315;-71
2023/05/24 09:44:27;;;;;;;17.40;15.80;;;15.00;41.40;;;;;;2610393;54;20419;-71
2023/05/24 09:50:18;;;;;;;19.50;17.60;;;15.00;44.30;;;;;;2608020;54;20437;-71
2023/05/24 09:56:09;;;;;;;16.40;14.80;;;15.20;44.10;;;;;;2611447;54;20391;-70
2023/05/24 10:08:33;;;;;;;19.37;17.23;;;15.00;34.90;;;;;;2610284;54;20503;-71
2023/05/24 10:14:22;;;;;;;17.53;16.23;;;16.10;35.00;;;;;;2612222;54;20442;-70
2023/05/24 10:20:11;;;;;;;18.47;17.03;;;14.90;37.50;;;;;;2610248;54;20423;-71
2023/05/24 10:26:05;;;;;;;19.20;17.40;;;14.40;49.10;;;;;;2610064;54;20503;-71
2023/05/24 10:31:53;;;;;;;19.87;17.73;;;13.80;48.70;;;;;;2614961;54;21086;-71
2023/05/24 10:37:41;;;;;;;18.93;16.63;;;13.70;55.20;;;;;;2613628;54;20444;-71
2023/05/24 10:43:29;;;;;;;20.50;16.60;;;13.60;56.10;;;;;;2613370;39;20773;-70
2023/05/24 10:49:18;;;;;;;18.40;16.63;;;14.00;57.50;;;;;;2612929;54;20134;-72
2023/05/24 10:55:10;;;;;;;17.60;16.03;;;14.30;52.40;;;;;;2611782;54;20395;-71
2023/05/24 11:00:57;;;;;;;18.00;16.40;;;14.20;52.10;;;;;;2610992;54;20535;-71
2023/05/24 11:04:07;;;;;;;16.00;14.63;;;14.20;48.50;;;;;;2612512;46;20881;-71
2023/05/24 11:09:56;;;;;;;19.37;17.57;;;14.90;47.90;;;;;;2612468;46;20450;-71
2023/05/24 11:15:51;;;;;;;16.30;15.10;;;15.10;46.30;;;;;;2612820;39;20739;-71
2023/05/24 11:21:40;;;;;;;20.43;16.00;;;14.60;47.60;;;;;;2614605;54;20371;-71
2023/05/24 11:27:29;;;;;;;16.23;15.03;;;14.50;51.90;;;;;;2614380;54;20412;-71
2023/05/24 11:33:18;;;;;;;18.00;16.50;;;14.70;48.60;;;;;;2614496;54;20367;-71
2023/05/24 11:39:08;;;;;;;16.23;14.90;;;14.50;52.50;;;;;;2613046;54;20359;-71
2023/05/24 11:44:56;;;;;;;17.23;15.70;;;14.60;47.90;;;;;;2613020;54;20958;-71
2023/05/24 11:50:47;;;;;;;16.80;15.33;;;14.70;47.90;;;;;;2614801;54;21062;-72
2023/05/24 11:56:35;;;;;;;17.30;15.90;;;14.90;48.70;;;;;;2614029;54;20396;-72
2023/05/24 12:02:23;;;;;;;15.87;14.47;;;14.40;47.00;;;;;;2607675;54;20459;-71
2023/05/24 12:05:39;;;;;;;23.67;16.47;;;14.60;47.80;;;;;;2610372;39;20823;-71
2023/05/24 12:11:27;;;;;;;18.10;16.40;;;14.50;48.30;;;;;;2608886;54;20394;-72
2023/05/24 12:17:15;;;;;;;16.73;15.20;;;14.80;47.80;;;;;;2609517;54;20398;-71
2023/05/24 12:23:03;;;;;;;16.57;15.27;;;14.80;44.80;;;;;;2613748;54;20359;-71
2023/05/24 12:28:54;;;;;;;19.20;17.73;;;14.90;45.80;;;;;;2608623;54;20665;-71
2023/05/24 12:34:43;;;;;;;18.20;16.80;;;15.90;41.40;;;;;;2610842;39;20827;-71
2023/05/24 12:40:32;;;;;;;19.70;17.27;;;16.30;36.40;;;;;;2608629;54;20395;-72
2023/05/24 12:46:20;;;;;;;19.10;17.40;;;16.10;36.30;;;;;;2609075;54;20399;-71
2023/05/24 12:52:07;;;;;;;19.13;17.13;;;15.90;36.50;;;;;;2608890;54;20134;-72
2023/05/24 12:57:56;;;;;;;19.43;17.47;;;15.50;36.00;;;;;;2609926;54;20142;-71
2023/05/24 13:03:52;;;;;;;19.10;17.67;;;15.40;39.60;;;;;;2607765;54;20440;-71
2023/05/24 13:09:40;;;;;;;18.13;16.60;;;15.50;39.60;;;;;;2609405;54;22469;-71
2023/05/24 13:15:27;;;;;;;17.90;16.00;;;18.10;32.50;;;;;;2611178;54;20130;-71
2023/05/24 13:21:14;;;;;;;23.17;21.30;;;17.80;26.50;;;;;;2610165;54;20143;-71
2023/05/24 13:27:02;;;;;;;22.07;19.20;;;16.70;30.70;;;;;;2611530;54;20130;-71
2023/05/24 13:32:49;;;;;;;24.50;22.10;;;16.90;32.00;;;;;;2608659;54;20422;-71
2023/05/24 13:38:37;;;;;;;24.40;21.80;;;16.20;34.20;;;;;;2609066;54;20130;-72
2023/05/24 13:44:25;;;;;;;22.13;20.40;;;16.10;35.90;;;;;;2613762;54;20166;-72
2023/05/24 13:50:13;;;;;;;23.17;21.37;;;15.80;35.70;;;;;;2613039;54;20153;-71
2023/05/24 13:56:01;;;;;;;20.47;18.53;;;16.30;38.70;;;;;;2612256;39;20549;-72
2023/05/24 14:05:40;;;;;;;22.90;20.50;;;16.30;38.90;;;;;;2611070;54;20431;-72
2023/05/24 14:11:30;;;;;;;22.13;20.13;;;15.50;43.80;;;;;;2612378;54;20435;-71
2023/05/24 14:17:19;;;;;;;20.30;18.70;;;15.20;47.30;;;;;;2613140;54;20440;-71
2023/05/24 14:23:08;;;;;;;18.77;17.20;;;15.20;49.00;;;;;;2610644;54;20395;-70
2023/05/24 14:28:56;;;;;;;19.73;17.70;;;15.20;48.30;;;;;;2611813;39;20822;-71
2023/05/24 14:34:43;;;;;;;22.30;18.73;;;15.40;51.20;;;;;;2612389;54;20824;-71
2023/05/24 14:40:33;;;;;;;18.33;16.73;;;15.80;44.70;;;;;;2610722;54;20278;-72
2023/05/24 14:46:20;;;;;;;19.57;17.63;;;16.60;42.40;;;;;;2611545;54;20390;-71
2023/05/24 14:52:08;;;;;;;19.53;16.43;;;16.30;37.60;;;;;;2611873;54;20122;-72
2023/05/24 14:57:56;;;;;;;19.40;17.77;;;16.20;40.70;;;;;;2611494;54;20130;-71
2023/05/24 15:01:09;;;;;;;19.37;17.73;;;16.00;41.80;;;;;;2611166;31;20889;-70
2023/05/24 15:07:13;;;;;;;18.40;16.70;;;16.10;42.80;;;;;;2612156;39;20879;-71
2023/05/24 15:13:02;;;;;;;21.07;18.83;;;15.90;45.30;;;;;;2612647;54;20387;-71
2023/05/24 15:18:51;;;;;;;18.93;17.20;;;15.60;47.50;;;;;;2611749;54;20964;-72
2023/05/24 15:24:38;;;;;;;20.53;17.60;;;15.70;46.70;;;;;;2612025;54;20395;-71
2023/05/24 15:30:26;;;;;;;20.33;18.53;;;16.00;47.90;;;;;;2611628;54;20174;-71
2023/05/24 15:36:15;;;;;;;19.57;17.87;;;16.60;41.80;;;;;;2610743;54;20129;-71
2023/05/24 15:42:04;;;;;;;19.43;17.63;;;17.80;32.80;;;;;;2610517;54;20399;-71
2023/05/24 15:47:53;;;;;;;18.67;17.47;;;17.90;33.00;;;;;;2611437;54;20480;-71
2023/05/24 15:53:41;;;;;;;19.20;17.70;;;18.60;29.00;;;;;;2610427;39;20757;-72
2023/05/24 15:59:29;;;;;;;18.60;17.20;;;18.50;29.30;;;;;;2611024;54;20744;-71
2023/05/24 16:02:39;;;;;;;18.73;16.87;;;18.00;28.40;;;;;;2609833;47;20412;-71
2023/05/24 16:05:05;;;;;;;18.37;16.97;;;18.30;28.60;;;;;;2607261;47;20700;-70
2023/05/24 16:10:54;;;;;;;18.13;16.70;;;17.90;27.70;;;;;;2611908;54;20510;-71
2023/05/24 16:13:57;;;;;;;20.30;18.53;;;17.20;32.60;;;;;;2613024;54;20416;-70
2023/05/24 16:16:24;;;;;;;19.33;17.73;;;17.00;32.50;;;;;;2610109;54;20414;-71
2023/05/24 16:22:12;;;;;;;18.60;16.77;;;16.70;36.30;;;;;;2609949;54;20391;-70
2023/05/24 16:27:59;;;;;;;18.17;16.30;;;16.50;39.00;;;;;;2609386;54;20158;-71
2023/05/24 16:33:48;;;;;;;18.23;16.63;;;16.50;41.70;;;;;;2611021;39;20523;-71
2023/05/24 16:39:37;;;;;;;18.17;16.53;;;16.40;39.10;;;;;;2608611;54;22019;-71
2023/05/24 16:45:24;;;;;;;17.30;15.77;;;16.30;40.90;;;;;;2604448;54;20354;-71
2023/05/24 16:51:12;;;;;;;20.23;17.57;;;16.40;42.00;;;;;;2612547;39;20496;-72
2023/05/24 16:57:00;;;;;;;17.90;16.40;;;16.20;42.60;;;;;;2611445;54;20150;-71
2023/05/24 17:09:32;;;;;;;16.93;15.77;;;16.20;43.40;;;;;;2612835;54;20427;-72
2023/05/24 17:15:20;;;;;;;16.73;15.40;;;16.40;45.20;;;;;;2612185;54;21010;-71
2023/05/24 17:21:08;;;;;;;16.30;15.13;;;16.00;46.80;;;;;;2612307;54;20151;-72
2023/05/24 17:26:56;;;;;;;21.10;15.90;;;15.80;48.80;;;;;;2610081;54;20134;-72
2023/05/24 17:32:43;;;;;;;17.57;16.10;;;15.70;48.80;;;;;;2611290;54;20130;-71
2023/05/24 17:38:32;;;;;;;18.17;16.50;;;15.60;49.40;;;;;;2612902;54;20732;-72
2023/05/24 17:44:20;;;;;;;18.17;16.87;;;15.30;54.10;;;;;;2612458;54;20437;-71
2023/05/24 17:50:09;;;;;;;16.93;15.83;;;15.30;59.80;;;;;;2612801;39;20826;-71
2023/05/24 17:55:57;;;;;;;16.03;14.77;;;15.10;60.70;;;;;;2613820;39;20796;-72
2023/05/24 18:01:46;;;;;;;16.43;14.83;;;15.00;62.40;;;;;;2613546;54;20127;-72
2023/05/24 18:07:35;;;;;;;17.90;16.10;;;14.80;61.50;;;;;;2612531;54;20469;-72
2023/05/24 18:11:02;;;;;;;19.10;17.10;;;14.80;67.60;;;;;;2611792;54;20507;-71
2023/05/24 18:16:50;;;;;;;17.97;16.20;;;14.80;73.60;;;;;;2611735;39;20675;-71
2023/05/24 18:22:38;;;;;;;19.90;18.20;;;14.80;75.80;;;;;;2613328;54;20114;-71
2023/05/24 18:28:26;;;;;;;16.67;15.30;;;14.70;79.40;;;;;;2613475;54;20423;-71
2023/05/24 18:34:13;;;;;;;21.30;17.67;;;14.70;78.60;;;;;;2613617;54;20147;-72
2023/05/24 18:40:01;;;;;;;20.13;16.43;;;14.70;91.80;;;;;;2613932;39;20418;-73
2023/05/24 18:45:49;;;;;;;17.00;15.70;;;14.70;93.60;;;;;;2613227;39;20765;-73
2023/05/24 18:51:37;;;;;;;22.33;15.87;;;14.60;94.40;;;;;;2613301;39;20637;-72
2023/05/24 18:57:25;;;;;;;18.60;16.33;;;14.40;98.50;;;;;;2608643;54;20235;-71
2023/05/24 19:03:13;;;;;;;17.97;16.40;;;14.30;99.90;;;;;;2609552;54;20403;-70
2023/05/24 19:06:27;;;;;;;17.23;15.60;;;14.20;99.90;;;;;;2610590;54;20367;-72
2023/05/24 19:08:52;;;;;;;18.50;16.87;;;14.10;99.90;;;;;;2609913;39;20605;-72
2023/05/24 19:14:40;;;;;;;17.53;15.73;;;14.00;99.90;;;;;;2613311;54;20174;-72
2023/05/24 19:20:28;;;;;;;18.50;14.73;;;14.00;99.90;;;;;;2611079;54;20175;-71
2023/05/24 19:26:19;;;;;;;19.93;15.10;;;14.00;99.90;;;;;;2607377;54;20131;-72
2023/05/24 19:32:07;;;;;;;16.13;14.67;;;13.90;99.90;;;;;;2608411;54;20962;-72
2023/05/24 19:37:55;;;;;;;17.03;15.50;;;13.80;99.90;;;;;;2609051;54;20435;-71
2023/05/24 19:43:43;;;;;;;16.83;15.63;;;13.50;99.90;;;;;;2608894;54;20166;-72
2023/05/24 19:49:30;;;;;;;17.63;15.77;;;13.30;99.90;;;;;;2603569;54;20122;-72
2023/05/24 19:55:18;;;;;;;17.17;13.13;;;13.00;99.90;;;;;;2612737;54;20153;-72
2023/05/24 20:01:06;;;;;;;17.63;15.50;;;12.60;99.90;;;;;;2609509;39;20283;-72
2023/05/24 20:10:59;;;;;;;17.43;15.23;;;12.20;99.90;;;;;;2606571;54;20499;-73
2023/05/24 20:16:47;;;;;;;16.17;14.50;;;12.10;99.90;;;;;;2605900;54;21145;-72
2023/05/24 20:22:35;;;;;;;19.40;16.17;;;11.90;99.90;;;;;;2608622;54;20187;-72
2023/05/24 20:28:23;;;;;;;18.87;14.60;;;11.80;99.90;;;;;;2609760;54;20123;-73
2023/05/24 20:34:11;;;;;;;15.33;13.77;;;11.40;99.90;;;;;;2611056;54;20410;-72
2023/05/24 20:39:59;;;;;;;18.67;13.97;;;11.20;99.90;;;;;;2606962;54;20151;-72
2023/05/24 20:45:46;;;;;;;17.47;13.57;;;10.90;99.90;;;;;;2608664;54;20174;-71
2023/05/24 20:51:35;;;;;;;18.47;12.23;;;10.70;99.90;;;;;;2607137;54;20123;-72
2023/05/24 20:57:22;;;;;;;15.97;12.30;;;10.50;99.90;;;;;;2609038;54;20934;-72
2023/05/24 21:03:10;;;;;;;13.63;12.30;;;10.40;99.90;;;;;;2605635;54;20130;-72
2023/05/24 21:06:26;;;;;;;15.03;12.63;;;10.30;99.90;;;;;;2608200;54;20968;-72
2023/05/24 21:08:52;;;;;;;19.70;11.47;;;10.40;99.90;;;;;;2608147;54;20677;-72
2023/05/24 21:14:40;;;;;;;17.83;14.47;;;10.40;99.90;;;;;;2612379;54;20246;-72
2023/05/24 21:20:28;;;;;;;15.73;11.83;;;10.60;99.90;;;;;;2607417;54;20482;-72
2023/05/24 21:26:16;;;;;;;19.53;15.57;;;10.50;99.90;;;;;;2609549;54;20572;-72
2023/05/24 21:32:04;;;;;;;17.47;14.40;;;10.30;99.90;;;;;;2604859;54;20483;-71
2023/05/24 21:37:52;;;;;;;19.63;13.57;;;10.60;99.90;;;;;;2603953;54;20228;-71
2023/05/24 21:43:41;;;;;;;20.67;12.93;;;10.50;99.90;;;;;;2604124;54;20410;-72
2023/05/24 21:49:29;;;;;;;20.77;13.03;;;10.30;99.90;;;;;;2603014;54;20953;-72
2023/05/24 21:55:16;;;;;;;17.80;12.27;;;10.20;99.90;;;;;;2604199;54;20138;-71
2023/05/24 22:01:04;;;;;;;15.53;13.60;;;10.00;99.90;;;;;;2604965;54;20151;-71
2023/05/24 22:10:57;;;;;;;23.67;14.27;;;9.70;99.90;;;;;;2605512;54;20382;-71
2023/05/24 22:16:45;;;;;;;19.47;12.17;;;9.70;99.90;;;;;;2609863;54;20519;-72
2023/05/24 22:22:35;;;;;;;14.17;12.67;;;9.40;99.90;;;;;;2611233;39;20621;-71
2023/05/24 22:28:23;;;;;;;22.23;13.67;;;9.40;99.90;;;;;;2614605;54;20366;-72
2023/05/24 22:34:11;;;;;;;20.30;13.80;;;9.30;99.90;;;;;;2614109;54;20475;-72
2023/05/24 22:39:59;;;;;;;20.63;12.17;;;9.30;99.90;;;;;;2610579;54;20379;-71
2023/05/24 22:45:47;;;;;;;17.00;12.90;;;9.10;99.90;;;;;;2609913;54;20255;-71
2023/05/24 22:51:36;;;;;;;27.27;14.07;;;9.00;99.90;;;;;;2610638;54;20134;-72
2023/05/24 22:57:24;;;;;;;17.73;13.03;;;9.00;99.90;;;;;;2611615;54;20369;-71
2023/05/24 23:03:11;;;;;;;18.53;12.03;;;9.30;99.90;;;;;;2610692;54;20749;-71
2023/05/24 23:06:27;;;;;;;17.93;13.40;;;9.50;99.90;;;;;;2610307;54;20399;-71
2023/05/24 23:08:54;;;;;;;22.43;12.60;;;9.50;99.90;;;;;;2610819;54;20167;-72
2023/05/24 23:14:45;;;;;;;16.17;11.43;;;9.40;99.90;;;;;;2608508;54;20484;-72
2023/05/24 23:20:38;;;;;;;19.40;12.73;;;9.40;99.90;;;;;;2610254;54;20517;-71
2023/05/24 23:26:27;;;;;;;16.10;12.57;;;9.40;99.90;;;;;;2611115;54;20367;-72
2023/05/24 23:32:15;;;;;;;22.67;12.73;;;9.30;99.90;;;;;;2608815;54;20383;-72
2023/05/24 23:38:03;;;;;;;25.37;13.13;;;9.00;99.90;;;;;;2609175;54;20259;-71
2023/05/24 23:43:51;;;;;;;20.90;13.50;;;9.00;99.90;;;;;;2610185;54;20130;-71
2023/05/24 23:49:38;;;;;;;16.40;11.90;;;8.90;99.90;;;;;;2611712;54;20133;-72
2023/05/24 23:55:26;;;;;;;17.10;12.53;;;8.90;99.90;;;;;;2611577;54;20154;-71
